Time;durP1;ratioP1;P1;durP2;ratioP2;P2;SDS_P1;SDS_P2;PMS_P1;PMS_P2;Temp;Humidity;BMP_temperature;BMP_pressure;BME280_temperature;BME280_humidity;BME280_pressure;Samples;Min_cycle;Max_cycle;Signal;HPM_P1;HPM_P2
2022/05/31 00:00:27;;;;;;;13.25;3.65;;;24.50;71.20;;;;;;5073303;28;20393;-76
2022/05/31 00:02:54;;;;;;;13.25;3.30;;;24.40;70.90;;;;;;5073145;28;20027;-72
2022/05/31 00:05:20;;;;;;;14.48;3.50;;;24.40;70.60;;;;;;5073244;28;20021;-72
2022/05/31 00:07:46;;;;;;;13.70;3.10;;;24.30;70.00;;;;;;5073638;28;20382;-74
2022/05/31 00:10:13;;;;;;;14.32;3.45;;;24.30;69.70;;;;;;5038461;28;20115;-72
2022/05/31 00:12:40;;;;;;;12.10;3.20;;;24.30;70.00;;;;;;5073322;28;20024;-73
2022/05/31 00:15:09;;;;;;;13.13;3.00;;;24.30;69.60;;;;;;5073172;28;20424;-76
2022/05/31 00:17:35;;;;;;;11.00;3.03;;;24.30;69.00;;;;;;5073109;28;20052;-73
2022/05/31 00:20:02;;;;;;;12.85;3.00;;;24.30;69.00;;;;;;5072956;28;20025;-72
2022/05/31 00:22:28;;;;;;;12.43;3.65;;;24.30;69.00;;;;;;5073094;28;20044;-73
2022/05/31 00:24:54;;;;;;;13.07;3.45;;;24.30;68.70;;;;;;5073211;28;20434;-73
2022/05/31 00:27:22;;;;;;;12.93;3.33;;;24.30;68.40;;;;;;5054924;28;20070;-74
2022/05/31 00:29:48;;;;;;;11.68;3.58;;;24.20;68.70;;;;;;5072783;28;20374;-73
2022/05/31 00:32:16;;;;;;;15.52;5.07;;;24.20;69.00;;;;;;5073076;28;20051;-74
2022/05/31 00:34:46;;;;;;;16.23;3.80;;;24.20;69.50;;;;;;5072650;28;20029;-74
2022/05/31 00:37:13;;;;;;;12.85;3.63;;;24.20;70.00;;;;;;5073158;28;20024;-73
2022/05/31 00:39:39;;;;;;;20.67;3.08;;;24.20;70.30;;;;;;5073010;28;20066;-74
2022/05/31 00:42:12;;;;;;;15.35;4.38;;;24.20;70.50;;;;;;5072742;28;20028;-75
2022/05/31 00:44:38;;;;;;;10.30;3.40;;;24.20;70.60;;;;;;5055532;28;20381;-75
2022/05/31 00:47:13;;;;;;;10.90;3.60;;;24.20;70.60;;;;;;5072671;28;20162;-72
2022/05/31 00:49:41;;;;;;;13.20;3.40;;;24.20;70.50;;;;;;5072429;28;20040;-74
2022/05/31 00:52:10;;;;;;;14.40;3.75;;;24.10;70.60;;;;;;5073041;28;20024;-73
2022/05/31 00:54:51;;;;;;;13.93;3.47;;;24.10;70.70;;;;;;5073076;28;20036;-73
2022/05/31 00:57:17;;;;;;;10.73;3.60;;;24.00;70.80;;;;;;5072766;28;20040;-73
2022/05/31 00:59:58;;;;;;;11.75;3.58;;;23.90;70.70;;;;;;5072434;28;20032;-74
2022/05/31 01:02:25;;;;;;;11.68;4.72;;;24.00;71.00;;;;;;5076303;28;20096;-73
2022/05/31 01:04:55;;;;;;;14.55;4.18;;;24.00;71.00;;;;;;5076767;28;20103;-75
2022/05/31 01:07:22;;;;;;;18.58;4.13;;;23.90;71.00;;;;;;5076759;28;20090;-74
2022/05/31 01:09:49;;;;;;;13.88;4.10;;;23.90;70.50;;;;;;5058259;28;20119;-73
2022/05/31 01:12:15;;;;;;;13.20;3.53;;;23.90;70.80;;;;;;5077605;28;20389;-75
2022/05/31 01:14:42;;;;;;;13.18;3.83;;;23.80;70.80;;;;;;5059233;28;20025;-74
2022/05/31 01:17:21;;;;;;;12.18;3.45;;;23.80;70.60;;;;;;5076717;28;20532;-74
2022/05/31 01:20:01;;;;;;;14.77;3.92;;;23.80;69.40;;;;;;5058446;28;20029;-73
2022/05/31 01:22:37;;;;;;;14.93;3.53;;;23.80;70.30;;;;;;5076462;28;20432;-74
2022/05/31 01:25:21;;;;;;;15.68;4.00;;;23.80;69.80;;;;;;5076351;28;20107;-75
2022/05/31 01:28:06;;;;;;;14.57;4.10;;;23.80;69.00;;;;;;5076597;28;20029;-74
2022/05/31 01:30:37;;;;;;;15.90;3.97;;;23.70;69.70;;;;;;5076667;28;20093;-74
2022/05/31 01:33:07;;;;;;;10.65;4.07;;;23.60;70.00;;;;;;5076323;28;20082;-74
2022/05/31 01:35:35;;;;;;;11.32;3.85;;;23.60;70.10;;;;;;5076194;28;20090;-72
2022/05/31 01:38:07;;;;;;;16.88;4.70;;;23.50;70.00;;;;;;5076113;28;20037;-74
2022/05/31 01:40:52;;;;;;;13.27;4.65;;;23.40;69.10;;;;;;5075994;28;20028;-74
2022/05/31 01:43:18;;;;;;;13.95;4.07;;;23.40;70.20;;;;;;5076211;28;20036;-72
2022/05/31 01:45:51;;;;;;;15.05;4.32;;;23.50;70.00;;;;;;5076135;28;20017;-74
2022/05/31 01:48:17;;;;;;;13.98;4.22;;;23.50;70.60;;;;;;5076000;28;20481;-73
2022/05/31 01:50:45;;;;;;;17.35;4.70;;;23.50;70.50;;;;;;5075652;28;20402;-74
2022/05/31 01:53:12;;;;;;;14.73;3.88;;;23.50;70.60;;;;;;5075813;28;20063;-72
2022/05/31 01:55:40;;;;;;;12.70;4.38;;;23.50;70.70;;;;;;5058108;28;20025;-74
2022/05/31 01:58:11;;;;;;;17.63;4.55;;;23.60;70.70;;;;;;5075781;28;20017;-73
2022/05/31 02:00:37;;;;;;;14.32;4.45;;;23.60;71.20;;;;;;5075574;28;20469;-73
2022/05/31 02:03:05;;;;;;;16.15;5.18;;;23.50;71.60;;;;;;5075509;28;20111;-73
2022/05/31 02:05:30;;;;;;;23.00;9.35;;;23.40;71.70;;;;;;5075977;28;20116;-73
2022/05/31 02:07:59;;;;;;;17.80;4.47;;;23.40;72.40;;;;;;5077894;28;20458;-75
2022/05/31 02:10:26;;;;;;;10.85;3.53;;;23.40;72.10;;;;;;5080741;28;20040;-74
2022/05/31 02:12:53;;;;;;;13.20;3.97;;;23.30;72.50;;;;;;5080422;28;20114;-73
2022/05/31 02:15:20;;;;;;;15.18;3.95;;;23.30;72.40;;;;;;5077127;28;20029;-71
2022/05/31 02:17:46;;;;;;;15.07;4.05;;;23.40;71.80;;;;;;5075896;28;20020;-74
2022/05/31 02:20:12;;;;;;;15.32;4.20;;;23.30;72.00;;;;;;5075365;28;20342;-74
2022/05/31 02:22:38;;;;;;;12.80;3.85;;;23.30;72.00;;;;;;5075312;28;20121;-73
2022/05/31 02:25:04;;;;;;;9.68;3.78;;;23.30;72.10;;;;;;5075471;28;20427;-74
2022/05/31 02:27:30;;;;;;;20.60;4.47;;;23.30;71.90;;;;;;5075342;28;20078;-73
2022/05/31 02:29:56;;;;;;;16.30;3.45;;;23.30;71.80;;;;;;5074866;28;20045;-75
2022/05/31 02:32:21;;;;;;;13.80;4.05;;;23.40;71.70;;;;;;5075249;28;20047;-74
2022/05/31 02:34:50;;;;;;;16.77;4.13;;;23.40;71.20;;;;;;5075369;28;20401;-75
2022/05/31 02:37:17;;;;;;;11.90;3.10;;;23.50;70.90;;;;;;5057021;28;20058;-72
2022/05/31 02:39:43;;;;;;;11.85;3.90;;;23.50;70.50;;;;;;5074914;28;20028;-72
2022/05/31 02:42:10;;;;;;;10.18;3.28;;;23.50;69.90;;;;;;5056883;28;20176;-74
2022/05/31 02:44:37;;;;;;;11.18;3.63;;;23.50;69.60;;;;;;5074730;28;20020;-73
2022/05/31 02:47:04;;;;;;;14.93;3.92;;;23.50;69.20;;;;;;5074754;28;20032;-74
2022/05/31 02:49:30;;;;;;;14.98;3.72;;;23.50;69.70;;;;;;5074558;28;20036;-73
2022/05/31 02:51:58;;;;;;;12.57;3.47;;;23.50;69.40;;;;;;5074528;28;20097;-71
2022/05/31 02:54:25;;;;;;;11.85;3.22;;;23.50;70.00;;;;;;5074945;28;20029;-72
2022/05/31 02:56:51;;;;;;;13.60;3.90;;;23.50;70.00;;;;;;5074553;28;20070;-74
2022/05/31 02:59:17;;;;;;;15.32;4.72;;;23.50;69.10;;;;;;5074598;28;20039;-73
2022/05/31 03:01:44;;;;;;;12.93;4.80;;;23.60;68.90;;;;;;5074599;28;20028;-74
2022/05/31 03:04:11;;;;;;;15.40;4.80;;;23.50;69.00;;;;;;5074640;28;20024;-73
2022/05/31 03:06:37;;;;;;;12.95;4.85;;;23.50;69.40;;;;;;5074547;28;20031;-73
2022/05/31 03:09:05;;;;;;;12.15;4.88;;;23.50;69.80;;;;;;5074446;28;20133;-72
2022/05/31 03:11:42;;;;;;;14.82;5.03;;;23.40;69.90;;;;;;5074556;28;20028;-72
2022/05/31 03:14:13;;;;;;;18.50;4.68;;;23.40;69.20;;;;;;5074300;28;20036;-72
2022/05/31 03:16:42;;;;;;;16.00;4.80;;;23.40;69.40;;;;;;5056602;28;20025;-74
2022/05/31 03:19:13;;;;;;;13.82;4.32;;;23.40;69.50;;;;;;5073941;28;20090;-72
2022/05/31 03:21:48;;;;;;;10.95;4.43;;;23.40;69.30;;;;;;5074174;28;20078;-73
2022/05/31 03:24:19;;;;;;;11.82;4.35;;;23.40;69.40;;;;;;5074260;28;20017;-71
2022/05/31 03:26:48;;;;;;;11.05;4.15;;;23.30;69.40;;;;;;5074321;28;20052;-73
2022/05/31 03:29:14;;;;;;;17.77;4.20;;;23.30;69.40;;;;;;5073735;28;20033;-73
2022/05/31 03:31:40;;;;;;;17.65;4.00;;;23.30;69.40;;;;;;5074045;28;20039;-71
2022/05/31 03:34:06;;;;;;;13.38;3.70;;;23.30;69.30;;;;;;5074094;28;20024;-72
2022/05/31 03:36:32;;;;;;;14.70;3.92;;;23.30;69.70;;;;;;5073920;28;20557;-73
2022/05/31 03:38:57;;;;;;;10.15;4.05;;;23.20;69.70;;;;;;5074829;28;20009;-74
2022/05/31 03:41:23;;;;;;;12.68;3.55;;;23.20;69.70;;;;;;5075333;28;20028;-73
2022/05/31 03:43:49;;;;;;;12.27;3.78;;;23.20;70.00;;;;;;5074259;28;20071;-73
2022/05/31 03:46:15;;;;;;;11.98;4.00;;;23.20;69.90;;;;;;5073550;28;20029;-73
2022/05/31 03:48:41;;;;;;;14.05;4.15;;;23.10;70.00;;;;;;5073686;28;20397;-73
2022/05/31 03:51:10;;;;;;;17.20;4.18;;;23.10;70.00;;;;;;5073396;28;20496;-73
2022/05/31 03:53:36;;;;;;;14.82;3.75;;;23.20;70.20;;;;;;5073516;28;20520;-74
2022/05/31 03:56:04;;;;;;;13.52;3.60;;;23.10;70.00;;;;;;5073556;28;20143;-74
2022/05/31 03:58:31;;;;;;;15.65;3.72;;;23.10;70.10;;;;;;5073428;28;20027;-74
2022/05/31 04:00:57;;;;;;;16.92;3.88;;;23.10;70.30;;;;;;5073252;28;20507;-74
2022/05/31 04:03:23;;;;;;;9.88;3.30;;;23.10;70.60;;;;;;5073720;28;20420;-73
2022/05/31 04:05:50;;;;;;;12.07;3.78;;;23.00;70.70;;;;;;5073677;28;20021;-74
2022/05/31 04:08:16;;;;;;;11.52;3.25;;;23.00;71.10;;;;;;5073720;28;20021;-72
2022/05/31 04:10:43;;;;;;;13.60;3.28;;;23.10;71.50;;;;;;5073317;28;20082;-69
2022/05/31 04:13:09;;;;;;;12.60;3.33;;;23.00;70.80;;;;;;5073434;28;20055;-70
2022/05/31 04:15:35;;;;;;;15.00;3.85;;;23.10;71.00;;;;;;5073538;28;20043;-71
2022/05/31 04:18:04;;;;;;;12.30;3.30;;;23.10;71.10;;;;;;5073667;28;20016;-72
2022/05/31 04:20:31;;;;;;;13.70;3.97;;;23.10;71.00;;;;;;5073352;28;20016;-70
2022/05/31 04:25:41;;;;;;;15.20;3.65;;;23.20;71.60;;;;;;5073646;28;20131;-71
2022/05/31 04:28:08;;;;;;;12.05;3.30;;;23.20;71.70;;;;;;5073499;28;20099;-73
2022/05/31 04:30:33;;;;;;;15.20;3.20;;;23.20;71.90;;;;;;5055061;28;20028;-73
2022/05/31 04:32:59;;;;;;;12.55;4.43;;;23.20;71.90;;;;;;5073266;28;20100;-73
2022/05/31 04:35:25;;;;;;;15.05;3.45;;;23.30;72.30;;;;;;5072644;28;20592;-73
2022/05/31 04:37:50;;;;;;;14.63;3.50;;;23.30;72.20;;;;;;5073210;28;20032;-73
2022/05/31 04:40:16;;;;;;;20.48;4.13;;;23.30;72.50;;;;;;5072908;28;20458;-70
2022/05/31 04:42:42;;;;;;;12.85;3.60;;;23.40;72.60;;;;;;5073565;28;20056;-72
2022/05/31 04:45:09;;;;;;;13.70;3.58;;;23.50;72.40;;;;;;5055453;28;20028;-73
2022/05/31 04:47:36;;;;;;;13.82;4.07;;;23.50;72.40;;;;;;5073220;28;20102;-73
2022/05/31 04:50:02;;;;;;;16.60;3.78;;;23.60;72.40;;;;;;5072772;28;20048;-74
2022/05/31 04:52:27;;;;;;;13.73;3.78;;;23.70;71.70;;;;;;5073563;28;20033;-73
2022/05/31 04:54:54;;;;;;;12.93;3.63;;;23.70;71.80;;;;;;5073219;28;20451;-75
2022/05/31 04:57:20;;;;;;;14.93;4.10;;;23.80;71.10;;;;;;5073152;28;20028;-73
2022/05/31 04:59:46;;;;;;;13.18;3.50;;;23.90;71.40;;;;;;5072571;28;20021;-74
2022/05/31 05:02:12;;;;;;;12.38;3.67;;;24.00;70.80;;;;;;5072875;28;20036;-74
2022/05/31 05:04:38;;;;;;;17.02;4.20;;;24.00;70.50;;;;;;5073071;28;20024;-72
2022/05/31 05:07:04;;;;;;;14.45;4.05;;;24.10;70.40;;;;;;5072893;28;20418;-73
2022/05/31 05:09:30;;;;;;;20.42;4.13;;;24.20;69.90;;;;;;5072375;28;20063;-71
2022/05/31 05:11:57;;;;;;;14.68;3.78;;;24.20;70.00;;;;;;5072336;28;20420;-72
2022/05/31 05:14:23;;;;;;;13.68;3.88;;;24.20;68.30;;;;;;5072517;28;20032;-72
2022/05/31 05:16:49;;;;;;;16.33;3.95;;;24.20;69.20;;;;;;5072629;28;20025;-73
2022/05/31 05:19:16;;;;;;;19.00;4.80;;;24.20;69.20;;;;;;5072461;28;20505;-73
2022/05/31 05:21:42;;;;;;;17.75;4.57;;;24.20;69.10;;;;;;5072607;28;20020;-73
2022/05/31 05:24:08;;;;;;;16.52;4.03;;;24.30;69.00;;;;;;5072543;28;20529;-72
2022/05/31 05:26:35;;;;;;;13.48;3.85;;;24.30;68.90;;;;;;5072478;28;20124;-74
2022/05/31 05:31:46;;;;;;;12.40;3.83;;;24.50;68.50;;;;;;5073164;28;20039;-73
2022/05/31 05:34:13;;;;;;;19.05;4.45;;;24.80;67.80;;;;;;5072471;28;20036;-72
2022/05/31 05:36:39;;;;;;;13.30;3.50;;;25.00;67.10;;;;;;5072288;28;20032;-70
2022/05/31 05:39:10;;;;;;;16.70;3.53;;;25.30;66.50;;;;;;5054315;28;20542;-72
2022/05/31 05:41:36;;;;;;;16.77;3.60;;;25.50;65.40;;;;;;5054650;28;20086;-75
2022/05/31 05:44:01;;;;;;;16.67;4.00;;;25.70;64.90;;;;;;5072660;28;20052;-74
2022/05/31 05:46:28;;;;;;;15.52;3.67;;;25.80;64.30;;;;;;5054449;28;20052;-75
2022/05/31 05:48:55;;;;;;;19.05;4.18;;;26.10;63.70;;;;;;5056643;28;20044;-75
2022/05/31 05:51:22;;;;;;;14.95;4.15;;;26.30;63.20;;;;;;5075538;28;20486;-76
2022/05/31 05:53:48;;;;;;;16.63;3.95;;;26.40;62.20;;;;;;5075725;28;20470;-76
2022/05/31 05:56:14;;;;;;;13.15;3.20;;;26.30;62.20;;;;;;5075979;28;20051;-75
2022/05/31 05:58:41;;;;;;;12.45;3.75;;;26.20;62.70;;;;;;5075899;28;20021;-77
2022/05/31 06:01:13;;;;;;;15.30;3.70;;;26.30;62.70;;;;;;5076043;28;20025;-78
2022/05/31 06:03:55;;;;;;;17.08;3.72;;;26.40;62.20;;;;;;5080540;28;20429;-75
2022/05/31 06:06:23;;;;;;;10.55;3.08;;;26.60;62.10;;;;;;5058190;28;20094;-77
2022/05/31 06:09:03;;;;;;;27.27;4.20;;;26.60;61.20;;;;;;5077483;28;20431;-77
2022/05/31 06:11:47;;;;;;;18.60;3.17;;;26.70;61.50;;;;;;5077554;28;20054;-75
2022/05/31 06:14:30;;;;;;;19.13;3.45;;;26.90;60.70;;;;;;5078490;28;20046;-73
2022/05/31 06:17:04;;;;;;;19.50;3.85;;;26.90;59.90;;;;;;5073745;28;20115;-73
2022/05/31 06:19:39;;;;;;;15.70;3.72;;;27.00;59.80;;;;;;5069915;28;20020;-72
2022/05/31 06:22:07;;;;;;;15.30;3.63;;;27.00;59.30;;;;;;5091544;28;20054;-70
2022/05/31 06:24:34;;;;;;;17.08;3.88;;;26.90;59.00;;;;;;5077362;28;20122;-71
2022/05/31 06:27:00;;;;;;;17.42;3.88;;;27.10;58.90;;;;;;5095152;28;20368;-71
2022/05/31 06:29:27;;;;;;;20.50;4.57;;;27.10;58.50;;;;;;5093493;28;20040;-71
2022/05/31 06:31:54;;;;;;;11.35;2.97;;;27.10;58.90;;;;;;5094998;28;20039;-74
2022/05/31 06:34:19;;;;;;;13.18;3.67;;;27.00;57.90;;;;;;5077436;28;20032;-72
2022/05/31 06:36:45;;;;;;;8.00;2.92;;;27.00;56.90;;;;;;5095322;28;20165;-72
2022/05/31 06:39:11;;;;;;;16.15;4.05;;;27.10;56.40;;;;;;5077493;28;20060;-75
2022/05/31 06:41:37;;;;;;;22.15;3.92;;;27.20;55.90;;;;;;5074958;28;20465;-73
2022/05/31 06:44:03;;;;;;;14.98;3.78;;;27.40;55.30;;;;;;5074300;28;20110;-73
2022/05/31 06:46:30;;;;;;;18.58;3.55;;;27.60;54.30;;;;;;5074948;28;20028;-73
2022/05/31 06:48:57;;;;;;;26.15;4.10;;;27.70;54.00;;;;;;5074621;28;20032;-72
2022/05/31 06:56:56;;;;;;;15.60;3.70;;;27.60;51.60;;;;;;5074751;28;20039;-75
2022/05/31 06:59:22;;;;;;;21.33;3.83;;;27.60;52.90;;;;;;5074050;28;20017;-72
2022/05/31 07:01:48;;;;;;;13.13;3.60;;;27.50;52.30;;;;;;5074580;28;20516;-77
2022/05/31 07:04:15;;;;;;;17.58;3.63;;;27.40;52.40;;;;;;5074654;28;20482;-71
2022/05/31 07:06:41;;;;;;;14.90;3.58;;;27.40;52.40;;;;;;5074416;28;20023;-69
2022/05/31 07:09:06;;;;;;;15.65;3.60;;;27.40;52.50;;;;;;5074559;28;20029;-72
2022/05/31 07:11:32;;;;;;;22.90;3.83;;;27.50;52.30;;;;;;5075184;28;20024;-73
2022/05/31 07:14:00;;;;;;;14.68;2.97;;;27.60;52.40;;;;;;5079718;28;20055;-71
2022/05/31 07:16:26;;;;;;;14.85;3.47;;;27.60;52.00;;;;;;5095856;28;20031;-72
2022/05/31 07:18:52;;;;;;;15.70;3.70;;;27.70;51.40;;;;;;5094474;28;20074;-72
2022/05/31 07:21:18;;;;;;;14.40;4.03;;;27.80;50.70;;;;;;5094609;28;20032;-73
2022/05/31 07:23:45;;;;;;;12.93;3.15;;;27.80;50.60;;;;;;5092535;28;20016;-74
2022/05/31 07:26:14;;;;;;;18.10;3.50;;;27.80;50.30;;;;;;5069277;28;20100;-71
2022/05/31 07:28:40;;;;;;;17.60;4.00;;;27.90;48.60;;;;;;5094224;28;20031;-72
2022/05/31 07:31:06;;;;;;;16.13;3.38;;;28.00;49.90;;;;;;5093412;28;20031;-73
2022/05/31 07:33:32;;;;;;;13.63;3.35;;;28.00;50.00;;;;;;5094135;28;20028;-72
2022/05/31 07:35:57;;;;;;;26.75;6.72;;;28.00;49.50;;;;;;5094016;28;20028;-72
2022/05/31 07:38:23;;;;;;;18.20;3.78;;;28.20;49.40;;;;;;5094154;28;20035;-74
2022/05/31 07:40:50;;;;;;;15.15;3.70;;;28.30;48.80;;;;;;5093469;28;20431;-74
2022/05/31 07:43:16;;;;;;;19.98;4.10;;;28.40;49.10;;;;;;5093966;28;20388;-74
2022/05/31 07:45:42;;;;;;;17.67;3.90;;;28.40;48.50;;;;;;5094061;28;20028;-72
2022/05/31 07:48:08;;;;;;;16.20;4.30;;;28.50;48.60;;;;;;5094257;28;20020;-73
2022/05/31 07:50:34;;;;;;;25.13;4.30;;;28.70;48.20;;;;;;5093600;28;20058;-77
2022/05/31 07:53:01;;;;;;;20.65;4.25;;;28.70;48.30;;;;;;5091436;28;20091;-75
2022/05/31 07:55:28;;;;;;;16.77;3.58;;;28.90;48.30;;;;;;5093710;28;20090;-72
2022/05/31 08:00:39;;;;;;;31.25;9.30;;;29.00;48.70;;;;;;5092553;28;20458;-75
2022/05/31 08:03:05;;;;;;;27.60;7.50;;;28.90;47.90;;;;;;5093721;28;20032;-76
2022/05/31 08:05:32;;;;;;;26.98;5.80;;;29.00;48.30;;;;;;5093495;28;20047;-74
2022/05/31 08:07:58;;;;;;;22.60;5.15;;;29.10;47.40;;;;;;5093542;28;20024;-71
2022/05/31 08:10:24;;;;;;;28.58;6.63;;;29.20;45.70;;;;;;5073575;28;20459;-72
2022/05/31 08:12:51;;;;;;;16.38;4.85;;;29.10;45.30;;;;;;5092914;28;20035;-72
2022/05/31 08:15:16;;;;;;;20.92;4.55;;;29.10;44.20;;;;;;5093438;28;20043;-73
2022/05/31 08:17:43;;;;;;;21.67;4.97;;;29.10;44.90;;;;;;5093721;28;20492;-74
2022/05/31 08:20:09;;;;;;;22.40;5.20;;;29.10;45.50;;;;;;5093681;28;20028;-75
2022/05/31 08:22:35;;;;;;;24.60;6.32;;;29.20;44.70;;;;;;5075575;28;20358;-71
2022/05/31 08:25:02;;;;;;;17.95;4.40;;;29.20;44.80;;;;;;5093490;28;20024;-75
2022/05/31 08:27:28;;;;;;;22.75;6.05;;;29.30;44.80;;;;;;5093486;28;20028;-75
2022/05/31 08:29:53;;;;;;;16.52;4.45;;;29.30;45.10;;;;;;5093340;28;20047;-75
2022/05/31 08:32:22;;;;;;;12.90;4.00;;;29.40;44.60;;;;;;5075465;28;20055;-76
2022/05/31 08:34:48;;;;;;;16.33;3.67;;;29.40;44.20;;;;;;5059259;28;20032;-74
2022/05/31 08:37:16;;;;;;;18.92;3.80;;;29.40;44.20;;;;;;5094139;28;20111;-74
2022/05/31 08:39:41;;;;;;;16.42;4.22;;;29.40;44.70;;;;;;5076568;28;20480;-71
2022/05/31 08:42:14;;;;;;;23.85;4.78;;;29.40;43.60;;;;;;5094706;28;20105;-76
2022/05/31 08:44:46;;;;;;;15.18;3.63;;;29.40;43.40;;;;;;5093443;28;20028;-73
2022/05/31 08:47:45;;;;;;;24.77;4.90;;;29.40;42.80;;;;;;5093397;28;20028;-75
2022/05/31 08:53:26;;;;;;;21.88;5.47;;;29.40;42.90;;;;;;5093248;28;20081;-73
2022/05/31 08:58:59;;;;;;;19.67;3.20;;;29.40;42.40;;;;;;5051805;28;20374;-73
2022/05/31 09:01:30;;;;;;;22.73;4.75;;;29.40;44.20;;;;;;5093309;28;20028;-75
2022/05/31 09:04:05;;;;;;;20.48;3.47;;;29.30;45.10;;;;;;5093035;28;20325;-73
2022/05/31 09:06:42;;;;;;;17.38;4.85;;;29.40;42.60;;;;;;5093145;28;20020;-75
2022/05/31 09:09:26;;;;;;;19.40;3.35;;;29.40;43.20;;;;;;5092754;28;20040;-74
2022/05/31 09:12:16;;;;;;;23.17;4.25;;;29.40;42.90;;;;;;5092980;28;20402;-74
2022/05/31 09:15:01;;;;;;;19.42;4.18;;;29.40;42.20;;;;;;5093006;28;20483;-76
2022/05/31 09:17:27;;;;;;;20.17;3.95;;;29.40;43.00;;;;;;5092827;28;20028;-74
2022/05/31 09:20:08;;;;;;;19.10;4.47;;;29.40;43.20;;;;;;5091846;22;20473;-74
2022/05/31 09:22:35;;;;;;;13.98;4.07;;;29.40;42.90;;;;;;5075064;28;20024;-73
2022/05/31 09:25:02;;;;;;;16.50;4.72;;;29.40;43.60;;;;;;5076652;28;20013;-75
2022/05/31 09:27:40;;;;;;;14.77;3.83;;;29.40;43.40;;;;;;5076587;28;20036;-74
2022/05/31 09:30:30;;;;;;;14.45;3.70;;;29.50;43.20;;;;;;5086223;28;20089;-75
2022/05/31 09:33:27;;;;;;;21.25;4.05;;;29.50;43.60;;;;;;5096475;28;20028;-72
2022/05/31 09:36:22;;;;;;;16.52;3.22;;;29.50;42.70;;;;;;5096686;28;20110;-70
2022/05/31 09:39:10;;;;;;;12.80;3.60;;;29.50;42.30;;;;;;5097315;28;20442;-72
2022/05/31 09:41:43;;;;;;;15.70;3.78;;;29.50;42.10;;;;;;5097313;28;20028;-73
2022/05/31 09:44:27;;;;;;;18.27;5.40;;;29.50;42.90;;;;;;5097142;28;20024;-76
2022/05/31 09:47:14;;;;;;;13.60;4.47;;;29.50;42.00;;;;;;5096358;28;20027;-73
2022/05/31 09:49:43;;;;;;;11.52;3.42;;;29.60;42.40;;;;;;5096133;28;20032;-76
2022/05/31 09:52:30;;;;;;;13.05;3.78;;;29.60;42.80;;;;;;5096240;28;20397;-74
2022/05/31 09:58:21;;;;;;;15.85;3.00;;;29.60;42.30;;;;;;5096330;28;20023;-74
2022/05/31 10:01:12;;;;;;;19.77;4.43;;;29.60;42.40;;;;;;5096141;28;20136;-69
2022/05/31 10:03:40;;;;;;;20.73;4.38;;;29.60;42.10;;;;;;5095985;28;20036;-70
2022/05/31 10:06:20;;;;;;;16.42;3.88;;;29.70;43.00;;;;;;5096102;28;20021;-71
2022/05/31 10:08:47;;;;;;;19.67;4.00;;;29.70;42.20;;;;;;5095950;28;20038;-71
2022/05/31 10:11:24;;;;;;;19.08;3.75;;;29.70;43.20;;;;;;5095622;28;20024;-71
2022/05/31 10:13:57;;;;;;;16.17;4.07;;;29.70;43.00;;;;;;5095720;28;20107;-71
2022/05/31 10:16:34;;;;;;;15.15;4.30;;;29.70;43.20;;;;;;5077351;28;20032;-70
2022/05/31 10:19:20;;;;;;;16.77;4.40;;;29.70;43.00;;;;;;5095439;28;20020;-73
2022/05/31 10:21:46;;;;;;;16.02;3.85;;;29.60;42.50;;;;;;5095831;28;20021;-73
2022/05/31 10:24:20;;;;;;;21.77;3.97;;;29.70;43.50;;;;;;5095179;28;20054;-74
2022/05/31 10:27:09;;;;;;;20.42;3.80;;;29.60;42.60;;;;;;5095505;28;20031;-72
2022/05/31 10:30:09;;;;;;;17.08;4.53;;;29.60;42.50;;;;;;5095933;28;20032;-73
2022/05/31 10:32:46;;;;;;;14.35;3.10;;;29.70;42.40;;;;;;5089321;28;20073;-73
2022/05/31 10:35:20;;;;;;;17.42;3.83;;;29.70;43.30;;;;;;5094880;28;20028;-72
2022/05/31 10:37:48;;;;;;;;;;;29.70;42.60;;;;;;5095848;28;20020;-70
2022/05/31 10:40:22;;;;;;;17.73;4.18;;;29.70;42.90;;;;;;5095102;28;19904;-71
2022/05/31 10:42:52;;;;;;;15.40;3.95;;;29.70;43.50;;;;;;5095390;28;20031;-72
2022/05/31 10:45:26;;;;;;;18.92;4.13;;;29.70;43.40;;;;;;5095073;28;20024;-71
2022/05/31 10:47:55;;;;;;;19.45;3.65;;;29.80;43.60;;;;;;5095156;28;20369;-73
2022/05/31 10:50:33;;;;;;;19.98;4.20;;;29.80;43.40;;;;;;5094546;28;20025;-72
2022/05/31 10:53:17;;;;;;;15.98;3.85;;;29.90;43.40;;;;;;5094728;28;20024;-71
2022/05/31 10:55:53;;;;;;;12.52;3.42;;;29.90;43.00;;;;;;5095091;28;20051;-71
2022/05/31 10:58:42;;;;;;;13.38;2.90;;;29.80;44.00;;;;;;5095107;28;20415;-71
2022/05/31 11:01:45;;;;;;;14.23;3.92;;;29.90;42.80;;;;;;5094726;28;20111;-72
2022/05/31 11:04:35;;;;;;;20.50;4.17;;;29.90;42.40;;;;;;5095078;28;20073;-73
2022/05/31 11:07:09;;;;;;;21.48;4.10;;;29.90;42.80;;;;;;5096062;28;20061;-76
2022/05/31 11:13:05;;;;;;;15.80;4.28;;;30.00;42.90;;;;;;5094898;28;20089;-74
2022/05/31 11:15:52;;;;;;;15.85;3.30;;;30.10;42.20;;;;;;5094497;28;20036;-73
2022/05/31 11:18:24;;;;;;;14.63;3.38;;;30.20;42.80;;;;;;5094791;28;20028;-74
2022/05/31 11:20:52;;;;;;;18.13;4.10;;;30.20;42.90;;;;;;5094374;28;20044;-75
2022/05/31 11:23:42;;;;;;;17.20;4.35;;;30.20;42.30;;;;;;5094432;28;20028;-76
2022/05/31 11:26:26;;;;;;;14.52;3.90;;;30.20;42.10;;;;;;5094498;28;20032;-73
2022/05/31 11:29:10;;;;;;;20.90;4.15;;;30.30;42.40;;;;;;5094146;28;20173;-70
2022/05/31 11:31:41;;;;;;;11.20;3.25;;;30.30;42.50;;;;;;5094982;28;20032;-72
2022/05/31 11:34:10;;;;;;;17.73;3.50;;;30.40;42.50;;;;;;5094658;28;20111;-74
2022/05/31 11:36:47;;;;;;;17.08;3.45;;;30.40;42.70;;;;;;5094533;28;20453;-73
2022/05/31 11:39:52;;;;;;;14.95;3.60;;;30.40;42.10;;;;;;5076333;28;20032;-73
2022/05/31 11:42:40;;;;;;;20.33;3.72;;;30.50;41.60;;;;;;5095322;28;20051;-75
2022/05/31 11:45:09;;;;;;;14.32;3.33;;;30.50;42.00;;;;;;5093537;28;20016;-71
2022/05/31 11:47:41;;;;;;;12.65;3.38;;;30.50;42.00;;;;;;5094257;28;20081;-73
2022/05/31 11:50:35;;;;;;;16.97;3.50;;;30.50;42.60;;;;;;5094403;28;20178;-72
2022/05/31 11:53:38;;;;;;;18.30;3.40;;;30.50;42.90;;;;;;5094262;28;20055;-74
2022/05/31 11:56:19;;;;;;;17.30;3.83;;;30.60;42.40;;;;;;5094470;28;20028;-74
2022/05/31 11:58:54;;;;;;;19.20;3.53;;;30.50;42.30;;;;;;5094292;28;20153;-72
2022/05/31 12:01:32;;;;;;;11.43;3.95;;;30.50;42.70;;;;;;5094180;28;20024;-72
2022/05/31 12:04:11;;;;;;;15.63;3.80;;;30.60;42.60;;;;;;5094071;28;20027;-72
2022/05/31 12:07:20;;;;;;;20.80;4.07;;;30.60;42.80;;;;;;5076441;28;20039;-75
2022/05/31 12:10:03;;;;;;;12.60;3.50;;;30.60;42.30;;;;;;5094828;28;20424;-71
2022/05/31 12:12:36;;;;;;;11.70;3.50;;;30.70;42.40;;;;;;5094113;28;20016;-75
2022/05/31 12:15:45;;;;;;;17.73;4.15;;;30.70;42.60;;;;;;5094200;28;20052;-76
2022/05/31 12:18:19;;;;;;;13.05;4.22;;;30.80;42.30;;;;;;5093204;28;20458;-73
2022/05/31 12:21:13;;;;;;;19.02;4.00;;;30.80;41.50;;;;;;5093576;28;20142;-71
2022/05/31 12:24:00;;;;;;;19.00;4.13;;;30.80;41.80;;;;;;5093494;28;20020;-70
2022/05/31 12:26:29;;;;;;;14.98;3.90;;;30.90;41.80;;;;;;5075188;28;20020;-70
2022/05/31 12:29:00;;;;;;;19.95;3.78;;;31.00;41.90;;;;;;5093361;28;20484;-72
2022/05/31 12:31:29;;;;;;;14.23;3.40;;;31.00;41.90;;;;;;5093303;28;20556;-72
2022/05/31 12:34:13;;;;;;;16.83;3.80;;;31.00;42.20;;;;;;5093206;28;20023;-69
2022/05/31 12:37:05;;;;;;;18.17;3.95;;;31.00;42.50;;;;;;5093295;28;20027;-70
2022/05/31 12:39:33;;;;;;;17.38;3.40;;;31.10;41.70;;;;;;5093297;28;20150;-71
2022/05/31 12:42:25;;;;;;;10.93;3.53;;;31.10;42.50;;;;;;5093247;28;20126;-71
2022/05/31 12:45:14;;;;;;;22.67;4.32;;;31.10;42.10;;;;;;5082466;28;20046;-74
2022/05/31 12:47:40;;;;;;;13.48;3.67;;;31.10;42.10;;;;;;5076184;28;20468;-70
2022/05/31 12:50:09;;;;;;;19.55;3.78;;;31.10;42.60;;;;;;5093189;28;20104;-70
2022/05/31 12:55:32;;;;;;;22.38;3.80;;;31.20;42.20;;;;;;5093558;28;20040;-70
2022/05/31 12:58:37;;;;;;;17.13;3.50;;;31.30;43.10;;;;;;5083086;28;20032;-74
2022/05/31 13:01:27;;;;;;;17.23;3.65;;;31.30;43.60;;;;;;5094379;28;20087;-77
2022/05/31 13:04:15;;;;;;;18.13;3.92;;;31.40;43.50;;;;;;5101682;28;20040;-74
2022/05/31 13:07:04;;;;;;;15.48;3.58;;;31.40;44.20;;;;;;5095313;28;20107;-72
2022/05/31 13:09:46;;;;;;;15.98;4.00;;;31.50;44.00;;;;;;5083066;28;20028;-73
2022/05/31 13:21:11;;;;;;;12.82;3.35;;;31.40;44.20;;;;;;5034504;28;20111;-72
2022/05/31 13:23:42;;;;;;;14.10;3.08;;;31.40;44.60;;;;;;5071524;28;20456;-74
2022/05/31 13:26:17;;;;;;;22.23;3.83;;;31.40;44.70;;;;;;5097155;28;20153;-78
2022/05/31 13:28:56;;;;;;;20.35;3.85;;;31.40;44.80;;;;;;5097173;28;20557;-75
2022/05/31 13:31:25;;;;;;;16.08;3.92;;;31.40;44.30;;;;;;5079746;28;20452;-75
2022/05/31 13:33:58;;;;;;;17.15;3.95;;;31.40;45.00;;;;;;5097038;28;20024;-75
2022/05/31 13:36:29;;;;;;;16.92;4.22;;;31.40;45.30;;;;;;5096769;28;20055;-76
2022/05/31 13:39:06;;;;;;;17.35;3.53;;;31.40;46.90;;;;;;5096705;28;20108;-74